Time,TemperatureF,DewpointF,PressureIn,WindDirection,WindDirectionDegrees,WindSpeedMPH,WindSpeedGustMPH,Humidity,HourlyPrecipIn,Conditions,Clouds,dailyrainin,SoftwareType,DateUTC
2013-09-29 00:01:00,49.7,30.3,30.21,East,90,0.2,0.2,47,0.00,,---,0.00,VWS V14.01,2013-09-29 06:01:00,
2013-09-29 00:06:00,49.7,29.8,30.21,East,90,0.4,0.4,46,0.00,,---,0.00,VWS V14.01,2013-09-29 06:06:00,
2013-09-29 00:11:00,49.5,30.1,30.21,East,90,0.0,0.0,47,0.00,,---,0.00,VWS V14.01,2013-09-29 06:11:00,
2013-09-29 00:16:00,49.7,30.3,30.21,East,90,1.1,1.1,47,0.00,,---,0.00,VWS V14.01,2013-09-29 06:16:00,
2013-09-29 00:21:00,49.7,29.8,30.21,East,90,0.0,0.0,46,0.00,,---,0.00,VWS V14.01,2013-09-29 06:21:00,
2013-09-29 00:26:00,49.5,29.6,30.21,East,90,0.0,0.0,46,0.00,,---,0.00,VWS V14.01,2013-09-29 06:26:00,
2013-09-29 00:31:00,49.3,29.4,30.21,East,90,0.2,0.2,46,0.00,,---,0.00,VWS V14.01,2013-09-29 06:31:00,
2013-09-29 00:36:00,49.0,28.6,30.21,East,90,0.0,0.0,45,0.00,,---,0.00,VWS V14.01,2013-09-29 06:36:00,
2013-09-29 00:41:00,48.6,28.8,30.21,East,90,0.0,0.0,46,0.00,,---,0.00,VWS V14.01,2013-09-29 06:41:00,
2013-09-29 00:46:00,48.4,28.6,30.21,East,90,1.1,1.1,46,0.00,,---,0.00,VWS V14.01,2013-09-29 06:46:00,
2013-09-29 00:51:00,48.4,28.6,30.21,East,90,0.4,0.4,46,0.00,,---,0.00,VWS V14.01,2013-09-29 06:51:00,
2013-09-29 00:56:00,48.2,28.4,30.21,East,90,0.0,0.0,46,0.00,,---,0.00,VWS V14.01,2013-09-29 06:56:00,
2013-09-29 01:01:00,47.9,28.1,30.21,East,90,0.0,0.0,46,0.00,,---,0.00,VWS V14.01,2013-09-29 07:01:00,
2013-09-29 01:06:00,47.9,28.1,30.21,East,90,0.0,0.0,46,0.00,,---,0.00,VWS V14.01,2013-09-29 07:06:00,
2013-09-29 01:11:00,47.7,28.0,30.21,East,90,0.0,0.0,46,0.00,,---,0.00,VWS V14.01,2013-09-29 07:11:00,
2013-09-29 01:16:00,47.3,28.1,30.21,East,90,0.0,0.0,47,0.00,,---,0.00,VWS V14.01,2013-09-29 07:16:00,
2013-09-29 01:21:00,47.0,27.8,30.21,East,90,0.0,0.0,47,0.00,,---,0.00,VWS V14.01,2013-09-29 07:21:00,
2013-09-29 01:26:00,46.6,27.5,30.21,East,90,0.0,0.0,47,0.00,,---,0.00,VWS V14.01,2013-09-29 07:26:00,
2013-09-29 01:31:00,46.3,28.7,30.21,East,90,0.0,0.0,50,0.00,,---,0.00,VWS V14.01,2013-09-29 07:31:00,
2013-09-29 01:36:00,45.9,28.3,30.21,East,90,0.0,0.0,50,0.00,,---,0.00,VWS V14.01,2013-09-29 07:36:00,
2013-09-29 01:41:00,46.1,28.5,30.21,East,90,0.2,0.2,50,0.00,,---,0.00,VWS V14.01,2013-09-29 07:41:00,
2013-09-29 01:46:00,45.9,29.3,30.21,ENE,68,0.0,0.0,52,0.00,,---,0.00,VWS V14.01,2013-09-29 07:46:00,
2013-09-29 01:51:00,46.4,28.8,30.21,East,90,0.7,0.7,50,0.00,,---,0.00,VWS V14.01,2013-09-29 07:51:00,
2013-09-29 01:56:00,47.7,28.5,30.21,ENE,68,0.0,0.4,47,0.00,,---,0.00,VWS V14.01,2013-09-29 07:56:00,
2013-09-29 02:01:00,48.2,28.4,30.21,ENE,68,0.0,0.0,46,0.00,,---,0.00,VWS V14.01,2013-09-29 08:01:00,
2013-09-29 02:06:00,47.3,28.1,30.21,ENE,68,0.0,0.0,47,0.00,,---,0.00,VWS V14.01,2013-09-29 08:06:00,
2013-09-29 02:11:00,46.6,28.0,30.21,ENE,68,0.0,0.0,48,0.00,,---,0.00,VWS V14.01,2013-09-29 08:11:00,
2013-09-29 02:16:00,46.1,28.0,30.21,ENE,68,0.0,0.0,49,0.00,,---,0.00,VWS V14.01,2013-09-29 08:16:00,
2013-09-29 02:21:00,45.9,28.8,30.21,ENE,68,0.7,0.7,51,0.00,,---,0.00,VWS V14.01,2013-09-29 08:21:00,
2013-09-29 02:26:00,46.3,29.2,30.21,East,90,0.9,0.9,51,0.00,,---,0.00,VWS V14.01,2013-09-29 08:26:00,
2013-09-29 02:31:00,46.6,29.5,30.21,East,90,0.2,0.2,51,0.00,,---,0.00,VWS V14.01,2013-09-29 08:31:00,
2013-09-29 02:36:00,46.6,29.9,30.20,East,90,0.7,0.7,52,0.00,,---,0.00,VWS V14.01,2013-09-29 08:36:00,
2013-09-29 02:41:00,46.4,29.8,30.21,ESE,112,1.1,1.1,52,0.00,,---,0.00,VWS V14.01,2013-09-29 08:41:00,
2013-09-29 02:46:00,46.8,30.6,30.20,East,90,0.4,0.4,53,0.00,,---,0.00,VWS V14.01,2013-09-29 08:46:00,
2013-09-29 02:51:00,46.4,29.3,30.20,East,90,0.0,0.0,51,0.00,,---,0.00,VWS V14.01,2013-09-29 08:51:00,
2013-09-29 02:56:00,45.9,29.3,30.20,East,90,0.2,0.2,52,0.00,,---,0.00,VWS V14.01,2013-09-29 08:56:00,
2013-09-29 03:01:00,46.1,29.5,30.20,East,90,1.3,1.3,52,0.00,,---,0.00,VWS V14.01,2013-09-29 09:01:00,
2013-09-29 03:06:00,46.3,29.6,30.20,East,90,0.0,0.0,52,0.00,,---,0.00,VWS V14.01,2013-09-29 09:06:00,
2013-09-29 03:11:00,45.5,28.9,30.20,East,90,0.0,0.0,52,0.00,,---,0.00,VWS V14.01,2013-09-29 09:11:00,
2013-09-29 03:16:00,45.2,29.1,30.20,ESE,112,0.0,0.0,53,0.00,,---,0.00,VWS V14.01,2013-09-29 09:16:00,
2013-09-29 03:21:00,44.6,28.5,30.20,ESE,112,0.0,0.0,53,0.00,,---,0.00,VWS V14.01,2013-09-29 09:21:00,
2013-09-29 03:26:00,44.3,28.7,30.20,ESE,112,0.0,0.0,54,0.00,,---,0.00,VWS V14.01,2013-09-29 09:26:00,
2013-09-29 03:31:00,44.1,29.4,30.20,SSE,158,0.0,0.0,56,0.00,,---,0.00,VWS V14.01,2013-09-29 09:31:00,
2013-09-29 03:36:00,44.1,29.4,30.20,SE,135,0.0,0.0,56,0.00,,---,0.00,VWS V14.01,2013-09-29 09:36:00,
2013-09-29 03:41:00,43.9,28.8,30.20,SE,135,0.0,0.0,55,0.00,,---,0.00,VWS V14.01,2013-09-29 09:41:00,
2013-09-29 03:46:00,43.7,28.6,30.20,SE,135,0.0,0.0,55,0.00,,---,0.00,VWS V14.01,2013-09-29 09:46:00,
2013-09-29 03:51:00,43.6,28.5,30.20,SE,135,0.0,0.0,55,0.00,,---,0.00,VWS V14.01,2013-09-29 09:51:00,
2013-09-29 03:56:00,43.4,27.9,30.20,SE,135,0.0,0.0,54,0.00,,---,0.00,VWS V14.01,2013-09-29 09:56:00,
2013-09-29 04:01:00,42.7,28.5,30.20,SE,135,0.0,0.0,57,0.00,,---,0.00,VWS V14.01,2013-09-29 10:01:00,
2013-09-29 04:06:00,42.7,29.0,30.20,SE,135,0.2,0.2,58,0.00,,---,0.00,VWS V14.01,2013-09-29 10:06:00,
2013-09-29 04:11:00,42.8,29.5,30.20,SE,135,0.4,0.4,59,0.00,,---,0.00,VWS V14.01,2013-09-29 10:11:00,
2013-09-29 04:16:00,43.4,30.0,30.20,ESE,112,1.1,1.1,59,0.00,,---,0.00,VWS V14.01,2013-09-29 10:16:00,
2013-09-29 04:21:00,43.9,30.5,30.20,East,90,1.6,1.6,59,0.00,,---,0.00,VWS V14.01,2013-09-29 10:21:00,
2013-09-29 04:26:00,43.9,30.1,30.20,East,90,0.0,0.4,58,0.00,,---,0.00,VWS V14.01,2013-09-29 10:26:00,
2013-09-29 04:31:00,43.6,30.2,30.20,East,90,0.0,0.0,59,0.00,,---,0.00,VWS V14.01,2013-09-29 10:31:00,
2013-09-29 04:36:00,43.2,29.4,30.20,East,90,0.0,0.0,58,0.00,,---,0.00,VWS V14.01,2013-09-29 10:36:00,
2013-09-29 04:41:00,42.8,29.9,30.20,East,90,0.0,0.4,60,0.00,,---,0.00,VWS V14.01,2013-09-29 10:41:00,
2013-09-29 04:46:00,42.7,29.8,30.20,East,90,0.0,0.0,60,0.00,,---,0.00,VWS V14.01,2013-09-29 10:46:00,
2013-09-29 04:51:00,42.7,30.2,30.20,East,90,0.9,0.9,61,0.00,,---,0.00,VWS V14.01,2013-09-29 10:51:00,
2013-09-29 04:56:00,42.7,29.8,30.20,East,90,0.0,0.0,60,0.00,,---,0.00,VWS V14.01,2013-09-29 10:56:00,
2013-09-29 05:01:00,42.5,29.6,30.20,East,90,0.0,0.0,60,0.00,,---,0.00,VWS V14.01,2013-09-29 11:01:00,
2013-09-29 05:06:00,42.5,29.6,30.20,ESE,112,0.0,0.0,60,0.00,,---,0.00,VWS V14.01,2013-09-29 11:06:00,
2013-09-29 05:11:00,42.8,29.5,30.20,ESE,112,0.0,0.0,59,0.00,,---,0.00,VWS V14.01,2013-09-29 11:11:00,
2013-09-29 05:16:00,42.7,30.2,30.20,ESE,112,0.0,0.0,61,0.00,,---,0.00,VWS V14.01,2013-09-29 11:16:00,
2013-09-29 05:21:00,42.3,29.4,30.20,ESE,112,0.0,0.0,60,0.00,,---,0.00,VWS V14.01,2013-09-29 11:21:00,
2013-09-29 05:26:00,41.8,29.4,30.21,ENE,68,0.0,0.0,61,0.00,,---,0.00,VWS V14.01,2013-09-29 11:26:00,
2013-09-29 05:31:00,41.4,29.8,30.20,ENE,68,0.4,0.4,63,0.00,,---,0.00,VWS V14.01,2013-09-29 11:31:00,
2013-09-29 05:36:00,41.2,30.0,30.20,ENE,68,0.0,0.0,64,0.00,,---,0.00,VWS V14.01,2013-09-29 11:36:00,
2013-09-29 05:41:00,41.2,30.3,30.21,NE,45,0.7,0.7,65,0.00,,---,0.00,VWS V14.01,2013-09-29 11:41:00,
2013-09-29 05:46:00,41.4,30.1,30.20,ENE,68,0.0,0.7,64,0.00,,---,0.00,VWS V14.01,2013-09-29 11:46:00,
2013-09-29 05:51:00,41.6,30.0,30.20,ENE,68,0.7,0.7,63,0.00,,---,0.00,VWS V14.01,2013-09-29 11:51:00,
2013-09-29 05:56:00,41.8,30.1,30.20,ENE,68,0.2,0.2,63,0.00,,---,0.00,VWS V14.01,2013-09-29 11:56:00,
2013-09-29 06:01:00,41.9,29.9,30.20,ENE,68,0.0,0.0,62,0.00,,---,0.00,VWS V14.01,2013-09-29 12:01:00,
2013-09-29 06:06:00,41.9,30.2,30.20,East,90,1.8,1.8,63,0.00,,---,0.00,VWS V14.01,2013-09-29 12:06:00,
2013-09-29 06:11:00,42.3,30.2,30.20,East,90,0.4,0.4,62,0.00,,---,0.00,VWS V14.01,2013-09-29 12:11:00,
2013-09-29 06:16:00,42.1,29.6,30.20,East,90,0.4,0.4,61,0.00,,---,0.00,VWS V14.01,2013-09-29 12:16:00,
2013-09-29 06:21:00,42.1,29.6,30.20,East,90,0.0,0.0,61,0.00,,---,0.00,VWS V14.01,2013-09-29 12:21:00,
2013-09-29 06:26:00,41.8,29.4,30.20,East,90,0.0,0.0,61,0.00,,---,0.00,VWS V14.01,2013-09-29 12:26:00,
2013-09-29 06:31:00,41.4,29.4,30.20,East,90,0.0,0.0,62,0.00,,---,0.00,VWS V14.01,2013-09-29 12:31:00,
2013-09-29 06:36:00,41.4,29.4,30.21,East,90,0.0,0.0,62,0.00,,---,0.00,VWS V14.01,2013-09-29 12:36:00,
2013-09-29 06:41:00,41.2,29.2,30.21,East,90,0.0,0.0,62,0.00,,---,0.00,VWS V14.01,2013-09-29 12:41:00,
2013-09-29 06:46:00,41.0,28.6,30.21,East,90,0.0,0.0,61,0.00,,---,0.00,VWS V14.01,2013-09-29 12:46:00,
2013-09-29 06:51:00,40.5,28.1,30.21,East,90,0.0,0.0,61,0.00,,---,0.00,VWS V14.01,2013-09-29 12:51:00,
2013-09-29 06:56:00,40.3,28.3,30.21,East,90,0.0,0.0,62,0.00,,---,0.00,VWS V14.01,2013-09-29 12:56:00,
2013-09-29 07:01:00,40.3,28.3,30.21,East,90,0.0,0.0,62,0.00,,---,0.00,VWS V14.01,2013-09-29 13:01:00,
2013-09-29 07:06:00,40.1,28.1,30.21,East,90,0.0,0.0,62,0.00,,---,0.00,VWS V14.01,2013-09-29 13:06:00,
2013-09-29 07:11:00,40.3,29.1,30.21,NE,45,2.0,2.0,64,0.00,,---,0.00,VWS V14.01,2013-09-29 13:11:00,
2013-09-29 07:16:00,40.7,30.2,30.21,ESE,112,1.1,1.1,66,0.00,,---,0.00,VWS V14.01,2013-09-29 13:16:00,
2013-09-29 07:21:00,40.9,29.7,30.21,ESE,112,0.0,0.4,64,0.00,,---,0.00,VWS V14.01,2013-09-29 13:21:00,
2013-09-29 07:26:00,41.0,29.4,30.22,ESE,112,0.0,0.0,63,0.00,,---,0.00,VWS V14.01,2013-09-29 13:26:00,
2013-09-29 07:31:00,40.9,30.1,30.22,ESE,112,0.0,0.4,65,0.00,,---,0.00,VWS V14.01,2013-09-29 13:31:00,
2013-09-29 07:36:00,40.9,29.3,30.22,ESE,112,0.4,0.4,63,0.00,,---,0.00,VWS V14.01,2013-09-29 13:36:00,
2013-09-29 07:41:00,41.4,30.1,30.22,ESE,112,0.0,0.0,64,0.00,,---,0.00,VWS V14.01,2013-09-29 13:41:00,
2013-09-29 07:46:00,41.9,30.2,30.22,ESE,112,0.0,0.0,63,0.00,,---,0.00,VWS V14.01,2013-09-29 13:46:00,
2013-09-29 07:51:00,42.8,30.7,30.22,ESE,112,0.0,0.0,62,0.00,,---,0.00,VWS V14.01,2013-09-29 13:51:00,
2013-09-29 07:56:00,43.0,30.5,30.22,ESE,112,0.0,0.0,61,0.00,,---,0.00,VWS V14.01,2013-09-29 13:56:00,
2013-09-29 08:01:00,43.6,30.6,30.22,ESE,112,0.0,0.0,60,0.00,,---,0.00,VWS V14.01,2013-09-29 14:01:00,
2013-09-29 08:06:00,43.9,30.9,30.22,ESE,112,0.0,0.0,60,0.00,,---,0.00,VWS V14.01,2013-09-29 14:06:00,
2013-09-29 08:11:00,44.5,31.1,30.22,ESE,112,0.0,0.0,59,0.00,,---,0.00,VWS V14.01,2013-09-29 14:11:00,
2013-09-29 08:16:00,45.2,31.3,30.23,ESE,112,0.0,0.0,58,0.00,,---,0.00,VWS V14.01,2013-09-29 14:16:00,
2013-09-29 08:21:00,46.6,32.6,30.23,ESE,112,0.0,0.0,58,0.00,,---,0.00,VWS V14.01,2013-09-29 14:21:00,
2013-09-29 08:26:00,48.4,33.9,30.23,ESE,112,0.0,0.0,57,0.00,,---,0.00,VWS V14.01,2013-09-29 14:26:00,
2013-09-29 08:31:00,50.8,35.2,30.23,ESE,112,0.0,0.0,55,0.00,,---,0.00,VWS V14.01,2013-09-29 14:31:00,
2013-09-29 08:35:00,53.6,35.9,30.23,ESE,112,0.0,0.0,51,0.00,,---,0.00,VWS V14.01,2013-09-29 14:35:00,
2013-09-29 08:40:00,55.8,34.8,30.23,ESE,112,0.0,0.0,45,0.00,,---,0.00,VWS V14.01,2013-09-29 14:40:00,
2013-09-29 08:45:00,56.5,31.9,30.23,SSW,202,0.4,0.4,39,0.00,,---,0.00,VWS V14.01,2013-09-29 14:45:00,
2013-09-29 08:50:00,57.6,32.8,30.23,SSW,202,0.0,0.0,39,0.00,,---,0.00,VWS V14.01,2013-09-29 14:50:00,
2013-09-29 08:55:00,57.8,31.7,30.23,SW,225,0.4,0.4,37,0.00,,---,0.00,VWS V14.01,2013-09-29 14:55:00,
2013-09-29 09:00:00,58.0,31.9,30.23,SW,225,0.4,0.4,37,0.00,,---,0.00,VWS V14.01,2013-09-29 15:00:00,
2013-09-29 09:05:00,58.1,32.0,30.23,WSW,248,0.0,0.0,37,0.00,,---,0.00,VWS V14.01,2013-09-29 15:05:00,
2013-09-29 09:10:00,57.8,31.7,30.23,SW,225,0.0,0.0,37,0.00,,---,0.00,VWS V14.01,2013-09-29 15:10:00,
2013-09-29 09:15:00,58.5,33.7,30.23,SW,225,0.0,0.0,39,0.00,,---,0.00,VWS V14.01,2013-09-29 15:15:00,
2013-09-29 09:20:00,59.2,32.3,30.23,SW,225,0.4,0.4,36,0.00,,---,0.00,VWS V14.01,2013-09-29 15:20:00,
2013-09-29 09:25:00,60.3,33.3,30.23,NW,315,0.9,0.9,36,0.00,,---,0.00,VWS V14.01,2013-09-29 15:25:00,
2013-09-29 09:30:00,61.9,32.5,30.23,West,270,1.6,1.6,33,0.00,,---,0.00,VWS V14.01,2013-09-29 15:30:00,
2013-09-29 09:35:00,61.7,33.1,30.23,WSW,248,0.0,0.0,34,0.00,,---,0.00,VWS V14.01,2013-09-29 15:35:00,
2013-09-29 09:40:00,61.4,32.1,30.23,SW,225,1.3,1.3,33,0.00,,---,0.00,VWS V14.01,2013-09-29 15:40:00,
2013-09-29 09:45:00,61.2,32.6,30.23,West,270,0.4,0.4,34,0.00,,---,0.00,VWS V14.01,2013-09-29 15:45:00,
2013-09-29 09:50:00,64.1,34.4,30.23,NE,45,1.1,1.1,33,0.00,,---,0.00,VWS V14.01,2013-09-29 15:50:00,
2013-09-29 09:55:00,66.1,34.6,30.23,NW,315,0.4,0.4,31,0.00,,---,0.00,VWS V14.01,2013-09-29 15:55:00,
2013-09-29 10:00:00,64.6,32.5,30.23,North,0,1.6,1.6,30,0.00,,---,0.00,VWS V14.01,2013-09-29 16:00:00,
2013-09-29 10:05:00,65.7,34.3,30.23,North,0,0.4,0.4,31,0.00,,---,0.00,VWS V14.01,2013-09-29 16:05:00,
2013-09-29 10:10:00,65.9,32.8,30.23,NW,315,2.0,2.0,29,0.00,,---,0.00,VWS V14.01,2013-09-29 16:10:00,
2013-09-29 10:15:00,63.5,31.5,30.23,West,270,0.0,0.0,30,0.00,,---,0.00,VWS V14.01,2013-09-29 16:15:00,
2013-09-29 10:20:00,64.1,32.9,30.23,NW,315,1.6,1.6,31,0.00,,---,0.00,VWS V14.01,2013-09-29 16:20:00,
2013-09-29 10:25:00,64.1,32.1,30.23,West,270,0.4,0.4,30,0.00,,---,0.00,VWS V14.01,2013-09-29 16:25:00,
2013-09-29 10:30:00,63.9,31.0,30.23,SW,225,1.8,1.8,29,0.00,,---,0.00,VWS V14.01,2013-09-29 16:30:00,
2013-09-29 10:35:00,63.0,31.1,30.23,NW,315,1.1,1.1,30,0.00,,---,0.00,VWS V14.01,2013-09-29 16:35:00,
2013-09-29 10:40:00,62.5,31.5,30.23,West,270,0.0,0.0,31,0.00,,---,0.00,VWS V14.01,2013-09-29 16:40:00,
2013-09-29 10:45:00,62.1,31.1,30.23,NW,315,1.3,1.3,31,0.00,,---,0.00,VWS V14.01,2013-09-29 16:45:00,
2013-09-29 10:50:00,61.7,30.0,30.23,WNW,292,1.6,1.6,30,0.00,,---,0.00,VWS V14.01,2013-09-29 16:50:00,
2013-09-29 10:55:00,61.9,30.1,30.22,WSW,248,0.7,0.9,30,0.00,,---,0.00,VWS V14.01,2013-09-29 16:55:00,
2013-09-29 11:00:00,62.1,30.3,30.22,WSW,248,0.7,0.7,30,0.00,,---,0.00,VWS V14.01,2013-09-29 17:00:00,
2013-09-29 11:05:00,62.3,31.3,30.22,SW,225,0.4,0.4,31,0.00,,---,0.00,VWS V14.01,2013-09-29 17:05:00,
2013-09-29 11:10:00,62.5,31.5,30.22,SW,225,0.4,0.4,31,0.00,,---,0.00,VWS V14.01,2013-09-29 17:10:00,
2013-09-29 11:15:00,63.7,30.0,30.22,WNW,292,2.2,2.2,28,0.00,,---,0.00,VWS V14.01,2013-09-29 17:15:00,
2013-09-29 11:20:00,64.4,30.6,30.22,SW,225,1.8,1.8,28,0.00,,---,0.00,VWS V14.01,2013-09-29 17:20:00,
2013-09-29 11:25:00,65.2,30.4,30.22,SW,225,1.6,1.6,27,0.00,,---,0.00,VWS V14.01,2013-09-29 17:25:00,
2013-09-29 11:30:00,65.2,29.5,30.21,WNW,292,1.6,1.6,26,0.00,,---,0.00,VWS V14.01,2013-09-29 17:30:00,
2013-09-29 11:35:00,65.9,30.1,30.21,SSE,158,0.7,0.7,26,0.00,,---,0.00,VWS V14.01,2013-09-29 17:35:00,
2013-09-29 11:40:00,65.2,27.5,30.21,WNW,292,0.9,0.9,24,0.00,,---,0.00,VWS V14.01,2013-09-29 17:40:00,
2013-09-29 11:45:00,65.2,28.5,30.21,WSW,248,2.0,2.0,25,0.00,,---,0.00,VWS V14.01,2013-09-29 17:45:00,
2013-09-29 11:50:00,65.3,28.6,30.21,WNW,292,2.0,2.0,25,0.00,,---,0.00,VWS V14.01,2013-09-29 17:50:00,
2013-09-29 11:55:00,65.0,27.4,30.20,SW,225,1.3,1.3,24,0.00,,---,0.00,VWS V14.01,2013-09-29 17:55:00,
2013-09-29 12:00:00,65.2,28.5,30.20,WSW,248,1.1,1.1,25,0.00,,---,0.00,VWS V14.01,2013-09-29 18:00:00,
2013-09-29 12:05:00,65.7,26.9,30.20,SW,225,2.2,2.2,23,0.00,,---,0.00,VWS V14.01,2013-09-29 18:05:00,
2013-09-29 12:10:00,66.2,29.4,30.20,WNW,292,1.8,1.8,25,0.00,,---,0.00,VWS V14.01,2013-09-29 18:10:00,
2013-09-29 12:15:00,66.4,29.5,30.20,WSW,248,1.8,1.8,25,0.00,,---,0.00,VWS V14.01,2013-09-29 18:15:00,
2013-09-29 12:20:00,66.2,26.3,30.20,WSW,248,2.5,2.5,22,0.00,,---,0.00,VWS V14.01,2013-09-29 18:20:00,
2013-09-29 12:25:00,66.2,28.4,30.20,SW,225,1.3,1.3,24,0.00,,---,0.00,VWS V14.01,2013-09-29 18:25:00,
2013-09-29 12:30:00,66.2,28.4,30.19,WSW,248,4.7,4.7,24,0.00,,---,0.00,VWS V14.01,2013-09-29 18:30:00,
2013-09-29 12:35:00,66.6,27.7,30.19,NE,45,0.9,0.9,23,0.00,,---,0.00,VWS V14.01,2013-09-29 18:35:00,
2013-09-29 12:40:00,66.6,27.7,30.19,WSW,248,0.4,0.4,23,0.00,,---,0.00,VWS V14.01,2013-09-29 18:40:00,
2013-09-29 12:45:00,67.3,27.2,30.19,NNW,338,2.7,2.7,22,0.00,,---,0.00,VWS V14.01,2013-09-29 18:45:00,
2013-09-29 12:50:00,67.3,26.1,30.19,NNE,22,2.7,2.7,21,0.00,,---,0.00,VWS V14.01,2013-09-29 18:50:00,
2013-09-29 12:55:00,67.5,26.2,30.18,ENE,68,1.1,2.5,21,0.00,,---,0.00,VWS V14.01,2013-09-29 18:55:00,
2013-09-29 13:00:00,67.7,27.5,30.18,West,270,1.3,1.3,22,0.00,,---,0.00,VWS V14.01,2013-09-29 19:00:00,
2013-09-29 13:05:00,67.9,27.7,30.18,WSW,248,2.9,2.9,22,0.00,,---,0.00,VWS V14.01,2013-09-29 19:05:00,
2013-09-29 13:10:00,67.9,26.6,30.18,WSW,248,1.8,1.8,21,0.00,,---,0.00,VWS V14.01,2013-09-29 19:10:00,
2013-09-29 13:15:00,67.7,26.4,30.17,WSW,248,2.0,2.0,21,0.00,,---,0.00,VWS V14.01,2013-09-29 19:15:00,
2013-09-29 13:20:00,67.7,26.4,30.17,NNE,22,2.5,2.5,21,0.00,,---,0.00,VWS V14.01,2013-09-29 19:20:00,
2013-09-29 13:25:00,68.0,27.8,30.17,NE,45,1.3,1.3,22,0.00,,---,0.00,VWS V14.01,2013-09-29 19:25:00,
2013-09-29 13:30:00,68.4,28.1,30.16,South,180,0.9,0.9,22,0.00,,---,0.00,VWS V14.01,2013-09-29 19:30:00,
2013-09-29 13:35:00,69.1,28.7,30.16,SW,225,1.6,1.6,22,0.00,,---,0.00,VWS V14.01,2013-09-29 19:35:00,
2013-09-29 13:40:00,69.1,27.6,30.16,SW,225,4.0,4.0,21,0.00,,---,0.00,VWS V14.01,2013-09-29 19:40:00,
2013-09-29 13:45:00,68.8,28.4,30.16,West,270,0.9,1.8,22,0.00,,---,0.00,VWS V14.01,2013-09-29 19:45:00,
2013-09-29 13:48:00,69.1,28.7,30.16,WSW,248,2.7,2.7,22,0.00,,---,0.00,VWS V14.01,2013-09-29 19:48:00,
2013-09-29 13:53:00,69.7,28.0,30.15,WSW,248,2.5,2.5,21,0.00,,---,0.00,VWS V14.01,2013-09-29 19:53:00,
2013-09-29 13:58:00,69.7,28.0,30.15,NNW,338,2.7,2.7,21,0.00,,---,0.00,VWS V14.01,2013-09-29 19:58:00,
2013-09-29 14:03:00,69.3,27.7,30.15,WNW,292,2.2,2.2,21,0.00,,---,0.00,VWS V14.01,2013-09-29 20:03:00,
2013-09-29 14:08:00,69.5,27.9,30.15,SW,225,0.0,0.0,21,0.00,,---,0.00,VWS V14.01,2013-09-29 20:08:00,
2013-09-29 14:13:00,69.8,28.1,30.14,SSE,158,0.2,0.2,21,0.00,,---,0.00,VWS V14.01,2013-09-29 20:13:00,
2013-09-29 14:18:00,69.8,29.3,30.14,ESE,112,1.8,1.8,22,0.00,,---,0.00,VWS V14.01,2013-09-29 20:18:00,
2013-09-29 14:23:00,70.2,28.5,30.13,SSW,202,1.3,1.3,21,0.00,,---,0.00,VWS V14.01,2013-09-29 20:23:00,
2013-09-29 14:28:00,70.6,28.8,30.13,South,180,1.1,1.1,21,0.00,,---,0.00,VWS V14.01,2013-09-29 20:28:00,
2013-09-29 14:33:00,70.4,28.6,30.12,SE,135,0.2,0.2,21,0.00,,---,0.00,VWS V14.01,2013-09-29 20:33:00,
2013-09-29 14:38:00,70.6,28.8,30.13,SW,225,2.5,2.5,21,0.00,,---,0.00,VWS V14.01,2013-09-29 20:38:00,
2013-09-29 14:43:00,71.6,28.4,30.13,WSW,248,0.4,0.4,20,0.00,,---,0.00,VWS V14.01,2013-09-29 20:43:00,
2013-09-29 14:48:00,72.5,27.9,30.12,West,270,3.6,3.6,19,0.00,,---,0.00,VWS V14.01,2013-09-29 20:48:00,
2013-09-29 14:53:00,72.4,30.3,30.12,SSW,202,0.0,0.0,21,0.00,,---,0.00,VWS V14.01,2013-09-29 20:53:00,
2013-09-29 14:58:00,72.9,28.3,30.12,SW,225,4.3,4.3,19,0.00,,---,0.00,VWS V14.01,2013-09-29 20:58:00,
2013-09-29 15:03:00,72.5,26.6,30.12,WSW,248,3.1,3.1,18,0.00,,---,0.00,VWS V14.01,2013-09-29 21:03:00,
2013-09-29 15:08:00,72.5,27.9,30.12,SW,225,0.0,0.0,19,0.00,,---,0.00,VWS V14.01,2013-09-29 21:08:00,
2013-09-29 15:13:00,72.5,27.9,30.12,NW,315,1.6,1.6,19,0.00,,---,0.00,VWS V14.01,2013-09-29 21:13:00,
2013-09-29 15:18:00,72.9,28.3,30.12,SSW,202,0.4,0.4,19,0.00,,---,0.00,VWS V14.01,2013-09-29 21:18:00,
2013-09-29 15:23:00,73.3,27.3,30.11,West,270,1.6,1.6,18,0.00,,---,0.00,VWS V14.01,2013-09-29 21:23:00,
2013-09-29 15:28:00,73.1,28.4,30.11,NW,315,0.9,0.9,19,0.00,,---,0.00,VWS V14.01,2013-09-29 21:28:00,
2013-09-29 15:33:00,73.4,28.7,30.11,NW,315,0.4,0.4,19,0.00,,---,0.00,VWS V14.01,2013-09-29 21:33:00,
2013-09-29 15:38:00,73.8,29.0,30.11,West,270,2.5,2.5,19,0.00,,---,0.00,VWS V14.01,2013-09-29 21:38:00,
2013-09-29 15:43:00,74.2,29.3,30.10,North,0,1.1,1.1,19,0.00,,---,0.00,VWS V14.01,2013-09-29 21:43:00,
2013-09-29 15:48:00,74.5,28.2,30.10,WSW,248,2.0,2.0,18,0.00,,---,0.00,VWS V14.01,2013-09-29 21:48:00,
2013-09-29 15:53:00,74.3,28.1,30.10,SSW,202,2.7,2.7,18,0.00,,---,0.00,VWS V14.01,2013-09-29 21:53:00,
2013-09-29 15:58:00,74.0,27.9,30.10,ESE,112,1.1,1.1,18,0.00,,---,0.00,VWS V14.01,2013-09-29 21:58:00,
2013-09-29 16:03:00,74.2,28.0,30.10,West,270,2.5,2.5,18,0.00,,---,0.00,VWS V14.01,2013-09-29 22:03:00,
2013-09-29 16:08:00,74.5,26.9,30.10,West,270,4.0,4.0,17,0.00,,---,0.00,VWS V14.01,2013-09-29 22:08:00,
2013-09-29 16:13:00,74.9,28.6,30.10,SW,225,1.6,1.6,18,0.00,,---,0.00,VWS V14.01,2013-09-29 22:13:00,
2013-09-29 16:18:00,75.4,27.6,30.10,WSW,248,2.7,2.7,17,0.00,,---,0.00,VWS V14.01,2013-09-29 22:18:00,
2013-09-29 16:23:00,75.1,27.4,30.10,ENE,68,0.7,0.7,17,0.00,,---,0.00,VWS V14.01,2013-09-29 22:23:00,
2013-09-29 16:28:00,75.6,26.3,30.10,NNE,22,4.0,4.0,16,0.00,,---,0.00,VWS V14.01,2013-09-29 22:28:00,
2013-09-29 16:33:00,75.2,26.0,30.09,West,270,1.8,1.8,16,0.00,,---,0.00,VWS V14.01,2013-09-29 22:33:00,
2013-09-29 16:38:00,75.4,27.6,30.10,SSW,202,1.8,1.8,17,0.00,,---,0.00,VWS V14.01,2013-09-29 22:38:00,
2013-09-29 16:43:00,75.4,26.1,30.09,NW,315,2.0,2.0,16,0.00,,---,0.00,VWS V14.01,2013-09-29 22:43:00,
2013-09-29 16:48:00,76.0,28.1,30.09,West,270,0.7,0.7,17,0.00,,---,0.00,VWS V14.01,2013-09-29 22:48:00,
2013-09-29 16:53:00,76.7,27.2,30.09,NW,315,1.3,1.3,16,0.00,,---,0.00,VWS V14.01,2013-09-29 22:53:00,
2013-09-29 16:58:00,76.7,27.2,30.09,WSW,248,1.3,1.3,16,0.00,,---,0.00,VWS V14.01,2013-09-29 22:58:00,
2013-09-29 17:02:00,76.7,27.2,30.09,West,270,0.4,0.4,16,0.00,,---,0.00,VWS V14.01,2013-09-29 23:02:00,
2013-09-29 17:07:00,77.4,27.7,30.09,WNW,292,0.4,0.4,16,0.00,,---,0.00,VWS V14.01,2013-09-29 23:07:00,
2013-09-29 17:12:00,78.5,27.0,30.09,WNW,292,4.5,4.5,15,0.00,,---,0.00,VWS V14.01,2013-09-29 23:12:00,
2013-09-29 17:17:00,77.4,27.7,30.09,WSW,248,3.4,3.4,16,0.00,,---,0.00,VWS V14.01,2013-09-29 23:17:00,
2013-09-29 17:22:00,77.9,26.6,30.09,WNW,292,2.7,2.7,15,0.00,,---,0.00,VWS V14.01,2013-09-29 23:22:00,
2013-09-29 17:27:00,78.8,27.3,30.09,North,0,2.9,2.9,15,0.00,,---,0.00,VWS V14.01,2013-09-29 23:27:00,
2013-09-29 17:32:00,79.2,27.6,30.08,NNW,338,3.4,3.4,15,0.00,,---,0.00,VWS V14.01,2013-09-29 23:32:00,
2013-09-29 17:37:00,79.9,28.2,30.08,NW,315,1.8,1.8,15,0.00,,---,0.00,VWS V14.01,2013-09-29 23:37:00,
2013-09-29 17:42:00,78.7,27.2,30.08,WNW,292,2.2,2.2,15,0.00,,---,0.00,VWS V14.01,2013-09-29 23:42:00,
2013-09-29 17:47:00,76.3,25.3,30.08,North,0,2.9,2.9,15,0.00,,---,0.00,VWS V14.01,2013-09-29 23:47:00,
2013-09-29 17:52:00,75.4,26.1,30.08,WNW,292,1.8,1.8,16,0.00,,---,0.00,VWS V14.01,2013-09-29 23:52:00,
2013-09-29 17:57:00,74.9,25.7,30.08,North,0,2.5,2.5,16,0.00,,---,0.00,VWS V14.01,2013-09-29 23:57:00,
2013-09-29 18:02:00,74.9,25.7,30.08,NNW,338,1.8,1.8,16,0.00,,---,0.00,VWS V14.01,2013-09-30 00:02:00,
2013-09-29 18:07:00,75.1,25.9,30.08,West,270,2.5,2.5,16,0.00,,---,0.00,VWS V14.01,2013-09-30 00:07:00,
2013-09-29 18:12:00,75.6,26.3,30.08,NW,315,2.9,2.9,16,0.00,,---,0.00,VWS V14.01,2013-09-30 00:12:00,
2013-09-29 18:17:00,75.2,27.4,30.08,NW,315,1.8,1.8,17,0.00,,---,0.00,VWS V14.01,2013-09-30 00:17:00,
2013-09-29 18:22:00,74.5,26.9,30.08,NNW,338,2.0,2.0,17,0.00,,---,0.00,VWS V14.01,2013-09-30 00:22:00,
2013-09-29 18:27:00,74.5,25.4,30.08,NW,315,2.0,2.0,16,0.00,,---,0.00,VWS V14.01,2013-09-30 00:27:00,
2013-09-29 18:32:00,74.0,26.5,30.08,NNW,338,2.5,2.5,17,0.00,,---,0.00,VWS V14.01,2013-09-30 00:32:00,
2013-09-29 18:37:00,73.4,26.0,30.08,NW,315,1.1,1.1,17,0.00,,---,0.00,VWS V14.01,2013-09-30 00:37:00,
2013-09-29 18:42:00,72.7,26.8,30.07,NNW,338,1.8,1.8,18,0.00,,---,0.00,VWS V14.01,2013-09-30 00:42:00,
2013-09-29 18:47:00,72.2,27.7,30.07,North,0,3.4,3.4,19,0.00,,---,0.00,VWS V14.01,2013-09-30 00:47:00,
2013-09-29 18:52:00,71.8,27.4,30.07,NNW,338,1.6,1.6,19,0.00,,---,0.00,VWS V14.01,2013-09-30 00:52:00,
2013-09-29 18:57:00,71.6,25.9,30.07,North,0,2.7,2.7,18,0.00,,---,0.00,VWS V14.01,2013-09-30 00:57:00,
2013-09-29 19:02:00,71.3,25.6,30.07,North,0,0.9,0.9,18,0.00,,---,0.00,VWS V14.01,2013-09-30 01:02:00,
2013-09-29 19:07:00,70.7,25.1,30.07,NNE,22,1.3,1.3,18,0.00,,---,0.00,VWS V14.01,2013-09-30 01:07:00,
2013-09-29 19:12:00,70.2,26.0,30.07,North,0,0.7,0.7,19,0.00,,---,0.00,VWS V14.01,2013-09-30 01:12:00,
2013-09-29 19:17:00,69.7,25.6,30.07,NNE,22,2.2,2.2,19,0.00,,---,0.00,VWS V14.01,2013-09-30 01:17:00,
2013-09-29 19:22:00,69.3,25.3,30.08,North,0,0.9,0.9,19,0.00,,---,0.00,VWS V14.01,2013-09-30 01:22:00,
2013-09-29 19:27:00,68.9,25.0,30.08,North,0,2.7,2.7,19,0.00,,---,0.00,VWS V14.01,2013-09-30 01:27:00,
2013-09-29 19:32:00,68.8,24.9,30.08,North,0,1.8,1.8,19,0.00,,---,0.00,VWS V14.01,2013-09-30 01:32:00,
2013-09-29 19:37:00,68.4,24.6,30.08,North,0,1.8,1.8,19,0.00,,---,0.00,VWS V14.01,2013-09-30 01:37:00,
2013-09-29 19:42:00,68.2,24.4,30.09,North,0,0.0,0.0,19,0.00,,---,0.00,VWS V14.01,2013-09-30 01:42:00,
2013-09-29 19:47:00,68.0,24.2,30.09,NNW,338,1.1,1.1,19,0.00,,---,0.00,VWS V14.01,2013-09-30 01:47:00,
2013-09-29 19:52:00,67.9,24.1,30.09,North,0,0.2,0.2,19,0.00,,---,0.00,VWS V14.01,2013-09-30 01:52:00,
2013-09-29 19:57:00,67.3,23.7,30.09,North,0,0.0,1.8,19,0.00,,---,0.00,VWS V14.01,2013-09-30 01:57:00,
2013-09-29 20:02:00,67.0,23.4,30.09,North,0,0.0,0.0,19,0.00,,---,0.00,VWS V14.01,2013-09-30 02:02:00,
2013-09-29 20:07:00,66.4,24.1,30.09,NNE,22,0.2,0.2,20,0.00,,---,0.00,VWS V14.01,2013-09-30 02:07:00,
2013-09-29 20:13:00,65.9,24.9,30.09,NNE,22,0.0,0.0,21,0.00,,---,0.00,VWS V14.01,2013-09-30 02:13:00,
2013-09-29 20:17:00,65.2,24.3,30.09,NNE,22,0.0,0.0,21,0.00,,---,0.00,VWS V14.01,2013-09-30 02:17:00,
2013-09-29 20:22:00,64.4,25.8,30.10,NNE,22,0.0,0.0,23,0.00,,---,0.00,VWS V14.01,2013-09-30 02:22:00,
2013-09-29 20:27:00,63.7,26.3,30.09,NNE,22,0.4,0.4,24,0.00,,---,0.00,VWS V14.01,2013-09-30 02:27:00,
2013-09-29 20:32:00,63.5,26.1,30.10,NE,45,0.9,0.9,24,0.00,,---,0.00,VWS V14.01,2013-09-30 02:32:00,
2013-09-29 20:37:00,63.4,27.0,30.10,NE,45,0.4,0.4,25,0.00,,---,0.00,VWS V14.01,2013-09-30 02:37:00,
2013-09-29 20:42:00,63.2,26.8,30.10,NE,45,0.0,0.0,25,0.00,,---,0.00,VWS V14.01,2013-09-30 02:42:00,
2013-09-29 20:47:00,62.5,26.2,30.10,NE,45,0.0,0.0,25,0.00,,---,0.00,VWS V14.01,2013-09-30 02:47:00,
2013-09-29 20:52:00,61.9,24.7,30.10,NE,45,0.0,0.0,24,0.00,,---,0.00,VWS V14.01,2013-09-30 02:52:00,
2013-09-29 20:57:00,61.4,27.1,30.10,NE,45,0.0,0.0,27,0.00,,---,0.00,VWS V14.01,2013-09-30 02:57:00,
2013-09-29 21:02:00,61.2,27.0,30.10,SSW,202,0.0,0.0,27,0.00,,---,0.00,VWS V14.01,2013-09-30 03:02:00,
2013-09-29 21:07:00,60.8,26.6,30.11,SSW,202,0.0,0.0,27,0.00,,---,0.00,VWS V14.01,2013-09-30 03:07:00,
2013-09-29 21:12:00,60.5,27.3,30.11,SSW,202,0.0,0.0,28,0.00,,---,0.00,VWS V14.01,2013-09-30 03:12:00,
2013-09-29 21:17:00,60.5,27.3,30.11,SSW,202,0.0,0.0,28,0.00,,---,0.00,VWS V14.01,2013-09-30 03:17:00,
2013-09-29 21:22:00,60.1,27.8,30.11,ESE,112,1.1,1.1,29,0.00,,---,0.00,VWS V14.01,2013-09-30 03:22:00,
2013-09-29 21:27:00,59.9,27.6,30.11,ESE,112,0.0,0.0,29,0.00,,---,0.00,VWS V14.01,2013-09-30 03:27:00,
2013-09-29 21:32:00,59.8,27.5,30.11,ESE,112,0.2,0.2,29,0.00,,---,0.00,VWS V14.01,2013-09-30 03:32:00,
2013-09-29 21:37:00,59.2,27.8,30.11,ESE,112,0.0,0.0,30,0.00,,---,0.00,VWS V14.01,2013-09-30 03:37:00,
2013-09-29 21:42:00,58.7,28.9,30.11,ESE,112,0.4,0.4,32,0.00,,---,0.00,VWS V14.01,2013-09-30 03:42:00,
2013-09-29 21:47:00,58.7,29.7,30.12,ESE,112,0.7,0.7,33,0.00,,---,0.00,VWS V14.01,2013-09-30 03:47:00,
2013-09-29 21:52:00,58.7,29.7,30.11,ESE,112,0.9,0.9,33,0.00,,---,0.00,VWS V14.01,2013-09-30 03:52:00,
2013-09-29 21:57:00,58.3,29.3,30.11,East,90,0.4,0.4,33,0.00,,---,0.00,VWS V14.01,2013-09-30 03:57:00,
2013-09-29 22:01:00,58.0,29.8,30.11,ESE,112,0.9,0.9,34,0.00,,---,0.00,VWS V14.01,2013-09-30 04:01:00,
2013-09-29 22:06:00,57.6,30.9,30.11,East,90,1.1,1.1,36,0.00,,---,0.00,VWS V14.01,2013-09-30 04:06:00,
2013-09-29 22:11:00,57.4,30.7,30.11,ESE,112,1.3,1.3,36,0.00,,---,0.00,VWS V14.01,2013-09-30 04:11:00,
2013-09-29 22:16:00,57.6,30.9,30.11,ESE,112,2.2,2.2,36,0.00,,---,0.00,VWS V14.01,2013-09-30 04:16:00,
2013-09-29 22:21:00,57.6,30.2,30.12,ESE,112,1.6,1.6,35,0.00,,---,0.00,VWS V14.01,2013-09-30 04:21:00,
2013-09-29 22:26:00,57.8,29.6,30.12,East,90,2.5,2.5,34,0.00,,---,0.00,VWS V14.01,2013-09-30 04:26:00,
2013-09-29 22:31:00,57.6,29.5,30.12,East,90,2.2,2.2,34,0.00,,---,0.00,VWS V14.01,2013-09-30 04:31:00,
2013-09-29 22:36:00,57.6,29.5,30.12,ESE,112,1.8,1.8,34,0.00,,---,0.00,VWS V14.01,2013-09-30 04:36:00,
2013-09-29 22:41:00,57.6,29.5,30.12,East,90,1.1,1.1,34,0.00,,---,0.00,VWS V14.01,2013-09-30 04:41:00,
2013-09-29 22:46:00,57.6,29.5,30.12,ESE,112,2.0,2.0,34,0.00,,---,0.00,VWS V14.01,2013-09-30 04:46:00,
2013-09-29 22:51:00,57.6,30.2,30.11,ENE,68,1.1,1.1,35,0.00,,---,0.00,VWS V14.01,2013-09-30 04:51:00,
2013-09-29 22:56:00,57.6,29.5,30.11,East,90,2.5,2.5,34,0.00,,---,0.00,VWS V14.01,2013-09-30 04:56:00,
2013-09-29 23:01:00,57.6,29.5,30.11,ENE,68,1.1,1.1,34,0.00,,---,0.00,VWS V14.01,2013-09-30 05:01:00,
2013-09-29 23:06:00,57.6,29.5,30.11,East,90,2.5,2.5,34,0.00,,---,0.00,VWS V14.01,2013-09-30 05:06:00,
2013-09-29 23:11:00,57.8,30.4,30.11,SW,225,1.1,1.1,35,0.00,,---,0.00,VWS V14.01,2013-09-30 05:11:00,
2013-09-29 23:16:00,57.4,29.3,30.11,NNE,22,0.4,0.4,34,0.00,,---,0.00,VWS V14.01,2013-09-30 05:16:00,
2013-09-29 23:21:00,56.9,28.8,30.11,North,0,0.0,0.0,34,0.00,,---,0.00,VWS V14.01,2013-09-30 05:21:00,
2013-09-29 23:26:00,56.7,28.7,30.11,NW,315,0.0,0.0,34,0.00,,---,0.00,VWS V14.01,2013-09-30 05:26:00,
2013-09-29 23:31:00,56.3,29.7,30.11,ENE,68,0.9,0.9,36,0.00,,---,0.00,VWS V14.01,2013-09-30 05:31:00,
2013-09-29 23:36:00,56.0,30.1,30.11,East,90,0.9,0.9,37,0.00,,---,0.00,VWS V14.01,2013-09-30 05:36:00,
2013-09-29 23:41:00,55.8,29.9,30.11,East,90,0.2,0.2,37,0.00,,---,0.00,VWS V14.01,2013-09-30 05:41:00,
2013-09-29 23:46:00,55.1,30.0,30.10,East,90,0.0,0.0,38,0.00,,---,0.00,VWS V14.01,2013-09-30 05:46:00,
2013-09-29 23:51:00,54.7,29.6,30.10,East,90,0.0,0.0,38,0.00,,---,0.00,VWS V14.01,2013-09-30 05:51:00,
2013-09-29 23:56:00,54.5,30.7,30.10,East,90,0.4,0.4,40,0.00,,---,0.00,VWS V14.01,2013-09-30 05:56:00,